Time;durP1;ratioP1;P1;durP2;ratioP2;P2;SDS_P1;SDS_P2;PMS_P1;PMS_P2;Temp;Humidity;BMP_temperature;BMP_pressure;BME280_temperature;BME280_humidity;BME280_pressure;Samples;Min_cycle;Max_cycle;Signal;HPM_P1;HPM_P2
2022/10/10 00:00:18;;;;;;;3.90;3.13;;;11.70;99.90;;;;;;4998642;28;20400;-81
2022/10/10 00:03:02;;;;;;;5.07;3.23;;;11.80;99.90;;;;;;5004314;28;20439;-80
2022/10/10 00:05:47;;;;;;;13.23;3.93;;;11.70;99.90;;;;;;5003548;28;20417;-80
2022/10/10 00:08:31;;;;;;;5.77;4.37;;;11.70;99.90;;;;;;5005060;28;20457;-81
2022/10/10 00:11:18;;;;;;;6.20;4.93;;;11.30;99.90;;;;;;5003776;28;20393;-81
2022/10/10 00:14:03;;;;;;;7.03;4.37;;;11.40;99.90;;;;;;5004151;28;20404;-81
2022/10/10 00:16:47;;;;;;;3.80;3.50;;;11.40;99.90;;;;;;5003146;28;20435;-81
2022/10/10 00:19:31;;;;;;;8.87;4.30;;;11.60;99.90;;;;;;5009088;28;20455;-79
2022/10/10 00:22:16;;;;;;;4.63;2.57;;;11.60;99.90;;;;;;5011140;28;20463;-81
2022/10/10 00:25:00;;;;;;;6.00;3.70;;;11.50;99.90;;;;;;5003076;28;20553;-81
2022/10/10 00:27:44;;;;;;;3.60;3.30;;;11.60;99.90;;;;;;5003970;28;20417;-81
2022/10/10 00:30:29;;;;;;;9.50;2.83;;;11.50;99.90;;;;;;5003951;28;20393;-82
2022/10/10 00:33:14;;;;;;;3.77;3.37;;;11.50;99.90;;;;;;5003664;28;20440;-81
2022/10/10 00:35:58;;;;;;;7.13;3.47;;;11.50;99.90;;;;;;5003506;28;20393;-81
2022/10/10 00:38:42;;;;;;;9.03;4.23;;;11.50;99.90;;;;;;5002976;28;20408;-81
2022/10/10 00:41:27;;;;;;;5.27;3.20;;;11.40;99.90;;;;;;5003787;28;20471;-79
2022/10/10 00:44:13;;;;;;;5.23;4.17;;;11.40;99.90;;;;;;5004331;28;20935;-80
2022/10/10 00:46:58;;;;;;;3.47;3.17;;;11.40;99.90;;;;;;5006601;28;20396;-80
2022/10/10 00:49:43;;;;;;;4.73;2.73;;;11.10;99.90;;;;;;5007498;28;20417;-81
2022/10/10 00:52:28;;;;;;;6.57;3.70;;;10.80;99.90;;;;;;4992108;28;20412;-80
2022/10/10 00:55:13;;;;;;;6.03;3.57;;;10.90;99.90;;;;;;5006112;28;20428;-80
2022/10/10 00:57:58;;;;;;;4.73;2.90;;;11.00;99.90;;;;;;5005972;28;20479;-81
2022/10/10 01:00:42;;;;;;;3.50;3.20;;;11.20;99.90;;;;;;5007575;28;20465;-80
2022/10/10 01:03:27;;;;;;;3.03;2.40;;;11.30;99.90;;;;;;5006977;28;20411;-78
2022/10/10 01:06:12;;;;;;;4.57;3.47;;;11.30;99.90;;;;;;5006844;28;20408;-81
2022/10/10 01:08:57;;;;;;;4.97;3.73;;;11.50;99.90;;;;;;5007802;28;20443;-80
2022/10/10 01:11:51;;;;;;;4.97;3.57;;;11.40;99.90;;;;;;5007488;28;20449;-81
2022/10/10 01:15:11;;;;;;;2.90;2.70;;;11.50;99.90;;;;;;5007859;28;20813;-81
2022/10/10 01:18:08;;;;;;;3.80;3.40;;;11.30;99.90;;;;;;5007870;28;20464;-81
2022/10/10 01:21:11;;;;;;;4.27;3.83;;;11.20;99.90;;;;;;5006203;28;20574;-81
2022/10/10 01:24:25;;;;;;;3.95;3.13;;;11.10;99.90;;;;;;5005279;28;20408;-81
2022/10/10 01:27:32;;;;;;;6.83;4.10;;;10.90;99.90;;;;;;5006229;28;20161;-81
2022/10/10 01:30:21;;;;;;;3.83;3.40;;;10.90;99.90;;;;;;5006690;28;20959;-80
2022/10/10 01:33:13;;;;;;;5.70;3.57;;;10.70;99.90;;;;;;5006800;28;20745;-80
2022/10/10 01:36:05;;;;;;;3.07;2.77;;;10.40;99.90;;;;;;5007297;28;20393;-80
2022/10/10 01:39:11;;;;;;;4.87;2.80;;;10.50;99.90;;;;;;5005568;28;20473;-81
2022/10/10 01:42:00;;;;;;;5.93;2.93;;;10.60;99.90;;;;;;5007113;28;20447;-79
2022/10/10 01:44:45;;;;;;;3.87;2.30;;;10.50;99.90;;;;;;5005845;28;20440;-81
2022/10/10 01:47:30;;;;;;;5.67;3.63;;;10.50;99.90;;;;;;5006984;28;20463;-82
2022/10/10 01:50:18;;;;;;;6.60;3.33;;;10.70;99.90;;;;;;5019882;28;20399;-81
2022/10/10 01:53:22;;;;;;;7.90;3.33;;;10.90;99.90;;;;;;5020088;28;20946;-79
2022/10/10 01:56:13;;;;;;;4.17;3.33;;;10.90;99.90;;;;;;5019394;28;20423;-81
2022/10/10 01:59:10;;;;;;;6.20;3.87;;;10.90;99.90;;;;;;5020136;28;20399;-81
2022/10/10 02:02:03;;;;;;;8.43;5.20;;;10.90;99.90;;;;;;5019253;28;20459;-80
2022/10/10 02:04:54;;;;;;;6.93;4.53;;;10.80;99.90;;;;;;5018703;28;20387;-80
2022/10/10 02:07:46;;;;;;;3.70;3.40;;;10.70;99.90;;;;;;5018942;28;20439;-80
2022/10/10 02:10:34;;;;;;;4.70;3.50;;;10.40;99.90;;;;;;5019242;28;20876;-81
2022/10/10 02:13:21;;;;;;;8.43;3.53;;;10.20;99.90;;;;;;5019904;28;20883;-80
2022/10/10 02:16:21;;;;;;;4.10;3.63;;;10.20;99.90;;;;;;5019933;28;20384;-80
2022/10/10 02:19:08;;;;;;;6.60;4.10;;;10.30;99.90;;;;;;5019281;28;20451;-80
2022/10/10 02:21:54;;;;;;;6.57;3.33;;;10.60;99.90;;;;;;5019033;28;20578;-81
2022/10/10 02:24:39;;;;;;;7.53;4.27;;;10.60;99.90;;;;;;5019614;28;20379;-80
2022/10/10 02:27:48;;;;;;;7.97;3.80;;;10.70;99.90;;;;;;5018995;28;20391;-81
2022/10/10 02:30:37;;;;;;;7.18;4.57;;;10.70;99.90;;;;;;5017776;28;20467;-81
2022/10/10 02:33:28;;;;;;;7.60;4.70;;;10.80;99.90;;;;;;5019003;28;20161;-81
2022/10/10 02:36:14;;;;;;;3.83;3.47;;;10.80;99.90;;;;;;5019119;28;20737;-81
2022/10/10 02:39:01;;;;;;;6.37;4.20;;;10.80;99.90;;;;;;5017431;28;20922;-80
2022/10/10 02:41:48;;;;;;;7.70;4.13;;;10.70;99.90;;;;;;5018632;28;20511;-81
2022/10/10 02:44:32;;;;;;;6.40;3.13;;;10.70;99.90;;;;;;5018724;28;20391;-82
2022/10/10 02:47:17;;;;;;;8.00;3.63;;;10.60;99.90;;;;;;5019467;28;20828;-80
2022/10/10 02:50:02;;;;;;;9.73;4.00;;;10.50;99.90;;;;;;5020289;28;20382;-81
2022/10/10 02:52:46;;;;;;;5.10;3.67;;;10.50;99.90;;;;;;5021760;28;20828;-81
2022/10/10 02:55:30;;;;;;;8.80;4.20;;;10.30;99.90;;;;;;5023244;28;20899;-81
2022/10/10 02:58:14;;;;;;;4.60;3.47;;;10.40;99.90;;;;;;5030903;28;20502;-80
2022/10/10 03:00:59;;;;;;;4.17;2.87;;;10.40;99.90;;;;;;5021498;28;20439;-81
2022/10/10 03:03:43;;;;;;;8.40;4.70;;;10.40;99.90;;;;;;5018965;28;20392;-81
2022/10/10 03:06:27;;;;;;;5.27;3.27;;;10.50;99.90;;;;;;5019778;28;20392;-81
2022/10/10 03:09:13;;;;;;;4.20;3.80;;;10.60;99.90;;;;;;5018177;28;20896;-80
2022/10/10 03:11:57;;;;;;;4.33;3.30;;;10.70;99.90;;;;;;5019839;28;20391;-81
2022/10/10 03:14:41;;;;;;;5.70;3.40;;;10.60;99.90;;;;;;5017801;28;20431;-81
2022/10/10 03:17:25;;;;;;;4.70;4.20;;;10.50;99.90;;;;;;5018192;28;20404;-80
2022/10/10 03:20:10;;;;;;;7.10;3.57;;;10.40;99.90;;;;;;5018132;28;20446;-80
2022/10/10 03:22:54;;;;;;;6.27;3.60;;;10.50;99.90;;;;;;5003316;28;20536;-80
2022/10/10 03:25:41;;;;;;;5.93;2.87;;;10.30;99.90;;;;;;4997459;28;20400;-81
2022/10/10 03:28:26;;;;;;;5.33;2.80;;;10.00;99.90;;;;;;5002350;28;20476;-81
2022/10/10 03:31:10;;;;;;;5.47;3.30;;;9.80;99.90;;;;;;5016949;28;20495;-80
2022/10/10 03:33:54;;;;;;;3.30;3.00;;;9.60;99.90;;;;;;5018769;28;20450;-81
2022/10/10 03:36:38;;;;;;;3.40;3.10;;;9.40;99.90;;;;;;5017992;28;20438;-80
2022/10/10 03:39:22;;;;;;;3.10;2.80;;;9.20;99.90;;;;;;5017356;28;20527;-81
2022/10/10 03:42:06;;;;;;;3.93;3.03;;;9.30;99.90;;;;;;5017753;28;20837;-81
2022/10/10 03:44:51;;;;;;;5.13;3.13;;;9.30;99.90;;;;;;5018050;28;20411;-81
2022/10/10 03:47:34;;;;;;;4.00;3.70;;;9.20;99.90;;;;;;4999742;28;20539;-80
2022/10/10 03:50:19;;;;;;;4.03;3.63;;;9.30;99.90;;;;;;5014297;28;20784;-80
2022/10/10 03:53:03;;;;;;;5.07;3.33;;;9.30;99.90;;;;;;5016687;28;20422;-81
2022/10/10 03:55:47;;;;;;;6.60;3.90;;;9.40;99.90;;;;;;5017470;28;20439;-81
2022/10/10 03:58:33;;;;;;;3.87;3.17;;;9.40;99.90;;;;;;5004815;28;20407;-82
2022/10/10 04:01:17;;;;;;;9.07;3.80;;;9.30;99.90;;;;;;4997555;28;20491;-81
2022/10/10 04:04:01;;;;;;;7.67;3.40;;;9.20;99.90;;;;;;4997916;28;20392;-81
2022/10/10 04:06:46;;;;;;;4.37;3.43;;;9.10;99.90;;;;;;4997722;28;20392;-80
2022/10/10 04:09:30;;;;;;;8.40;3.67;;;9.20;99.90;;;;;;4996210;28;20451;-81
2022/10/10 04:12:16;;;;;;;4.63;3.93;;;9.30;99.90;;;;;;5013492;28;20982;-81
2022/10/10 04:15:00;;;;;;;3.90;3.47;;;9.30;99.90;;;;;;5017107;28;20395;-81
2022/10/10 04:17:44;;;;;;;4.80;3.13;;;9.20;99.90;;;;;;5017063;28;20498;-80
2022/10/10 04:20:28;;;;;;;3.83;3.00;;;9.30;99.90;;;;;;5017172;28;20386;-80
2022/10/10 04:23:12;;;;;;;5.27;3.40;;;9.30;99.90;;;;;;5017564;28;20410;-80
2022/10/10 04:25:56;;;;;;;8.23;3.33;;;9.40;99.90;;;;;;5016875;28;20403;-80
2022/10/10 04:28:41;;;;;;;5.73;3.07;;;9.40;99.90;;;;;;5015492;28;20829;-81
2022/10/10 04:31:25;;;;;;;10.73;3.70;;;9.50;99.90;;;;;;5017667;28;20728;-81
2022/10/10 04:34:09;;;;;;;3.87;3.30;;;9.40;99.90;;;;;;5017408;28;20498;-81
2022/10/10 04:36:53;;;;;;;2.70;2.50;;;9.50;99.90;;;;;;5017300;28;20384;-80
2022/10/10 04:39:37;;;;;;;4.10;3.40;;;9.30;99.90;;;;;;5017651;28;20396;-80
2022/10/10 04:42:21;;;;;;;4.90;3.17;;;9.30;99.90;;;;;;5017412;28;20494;-81
2022/10/10 04:45:06;;;;;;;5.10;3.70;;;9.30;99.90;;;;;;5017494;28;20411;-80
2022/10/10 04:47:53;;;;;;;5.20;3.23;;;9.30;99.90;;;;;;5017320;28;20387;-80
2022/10/10 04:50:38;;;;;;;6.80;3.60;;;9.30;99.90;;;;;;5017152;28;20892;-80
2022/10/10 04:53:25;;;;;;;4.90;3.73;;;9.20;99.90;;;;;;5017709;28;20452;-81
2022/10/10 04:56:09;;;;;;;3.33;3.03;;;9.20;99.90;;;;;;5017452;28;20396;-81
2022/10/10 04:58:53;;;;;;;4.47;3.50;;;9.30;99.90;;;;;;5017311;28;20387;-81
2022/10/10 05:01:37;;;;;;;4.50;3.37;;;9.40;99.90;;;;;;5016397;28;20454;-81
2022/10/10 05:04:21;;;;;;;5.00;3.17;;;9.40;99.90;;;;;;5017293;28;20388;-82
2022/10/10 05:07:05;;;;;;;6.43;3.70;;;9.20;99.90;;;;;;5019604;28;20446;-80
2022/10/10 05:09:50;;;;;;;5.17;4.20;;;9.20;99.90;;;;;;5017629;28;20387;-81
2022/10/10 05:12:34;;;;;;;4.80;3.60;;;9.40;99.90;;;;;;5010781;28;20463;-81
2022/10/10 05:15:20;;;;;;;11.50;4.53;;;9.20;99.90;;;;;;5009757;28;20458;-82
2022/10/10 05:18:04;;;;;;;4.33;3.20;;;9.30;99.90;;;;;;5006901;28;20499;-82
2022/10/10 05:20:48;;;;;;;4.33;3.13;;;9.30;99.90;;;;;;5001479;28;20489;-81
2022/10/10 05:23:37;;;;;;;5.87;3.50;;;9.30;99.90;;;;;;5000742;28;20426;-79
2022/10/10 05:26:21;;;;;;;4.33;3.27;;;9.30;99.90;;;;;;5032299;28;20411;-81
2022/10/10 05:29:05;;;;;;;5.80;3.07;;;9.30;99.90;;;;;;5033897;28;20378;-79
2022/10/10 05:31:50;;;;;;;4.37;3.97;;;9.20;99.90;;;;;;5032596;28;20455;-81
2022/10/10 05:34:34;;;;;;;3.50;3.20;;;9.20;99.90;;;;;;5030343;28;20786;-81
2022/10/10 05:37:20;;;;;;;3.37;3.07;;;9.30;99.90;;;;;;5010147;28;20506;-80
2022/10/10 05:40:04;;;;;;;10.10;4.23;;;9.30;99.90;;;;;;5001338;28;20485;-81
2022/10/10 05:42:49;;;;;;;4.80;3.67;;;9.30;99.90;;;;;;5009646;28;20466;-80
2022/10/10 05:45:33;;;;;;;5.87;3.83;;;9.20;99.90;;;;;;5009525;28;20868;-82
2022/10/10 05:48:17;;;;;;;6.00;3.73;;;9.30;99.90;;;;;;5002904;28;20517;-81
2022/10/10 05:51:02;;;;;;;5.27;3.67;;;9.30;99.90;;;;;;5008260;28;20926;-82
2022/10/10 05:53:47;;;;;;;4.30;3.17;;;9.30;99.90;;;;;;5015294;28;20451;-81
2022/10/10 05:56:31;;;;;;;3.80;3.50;;;9.30;99.90;;;;;;5014459;28;20878;-80
2022/10/10 05:59:15;;;;;;;5.20;4.30;;;9.30;99.90;;;;;;5011145;28;20467;-81
2022/10/10 06:01:59;;;;;;;7.00;4.53;;;9.20;99.90;;;;;;5013030;28;20463;-81
2022/10/10 06:04:43;;;;;;;8.57;3.83;;;9.30;99.90;;;;;;5008940;28;20981;-79
2022/10/10 06:07:28;;;;;;;5.67;4.07;;;9.30;99.90;;;;;;5009039;28;21023;-81
2022/10/10 06:10:12;;;;;;;6.27;4.83;;;9.40;99.90;;;;;;5009716;28;20801;-80
2022/10/10 06:12:56;;;;;;;5.20;4.70;;;9.40;99.90;;;;;;5017786;28;20439;-81
2022/10/10 06:15:42;;;;;;;9.80;5.07;;;9.50;99.90;;;;;;5016406;28;20451;-81
2022/10/10 06:18:26;;;;;;;7.30;4.90;;;9.40;99.90;;;;;;5019775;28;20462;-80
2022/10/10 06:21:11;;;;;;;14.17;4.33;;;9.60;99.90;;;;;;5033114;28;20535;-79
2022/10/10 06:23:55;;;;;;;8.10;3.60;;;9.80;99.90;;;;;;5017204;28;20440;-80
2022/10/10 06:26:40;;;;;;;3.83;3.53;;;9.70;99.90;;;;;;5016511;28;20443;-81
2022/10/10 06:29:25;;;;;;;4.10;3.70;;;9.80;99.90;;;;;;5013600;28;20490;-81
2022/10/10 06:32:09;;;;;;;5.00;3.73;;;9.80;99.90;;;;;;5016582;28;20443;-82
2022/10/10 06:34:53;;;;;;;4.20;3.40;;;9.90;99.90;;;;;;5006614;28;20427;-82
2022/10/10 06:37:39;;;;;;;4.03;3.43;;;10.00;99.90;;;;;;5014725;28;20478;-81
2022/10/10 06:40:25;;;;;;;6.40;3.70;;;10.00;99.90;;;;;;5013289;28;20423;-81
2022/10/10 06:43:11;;;;;;;6.97;4.77;;;10.10;99.90;;;;;;5015986;28;20453;-81
2022/10/10 06:45:55;;;;;;;14.40;4.13;;;10.20;99.90;;;;;;5012615;28;20511;-81
2022/10/10 06:48:40;;;;;;;4.53;3.63;;;10.30;99.90;;;;;;5008994;28;21838;-81
2022/10/10 06:51:24;;;;;;;4.80;3.17;;;10.50;99.90;;;;;;5006478;28;20888;-81
2022/10/10 06:54:10;;;;;;;5.17;3.10;;;10.60;99.90;;;;;;5013145;28;20462;-81
2022/10/10 06:57:14;;;;;;;14.90;3.90;;;10.70;99.90;;;;;;5006823;28;20498;-80
2022/10/10 06:59:58;;;;;;;9.17;3.80;;;10.70;99.90;;;;;;4986328;28;20563;-80
2022/10/10 07:02:43;;;;;;;3.63;2.73;;;10.70;99.90;;;;;;4988945;28;20528;-81
2022/10/10 07:05:28;;;;;;;2.80;2.60;;;10.90;99.90;;;;;;5002037;28;20444;-81
2022/10/10 07:08:12;;;;;;;4.53;3.37;;;11.00;99.90;;;;;;5008807;28;20453;-83
2022/10/10 07:10:57;;;;;;;5.10;3.30;;;11.00;99.90;;;;;;4993287;28;20452;-81
2022/10/10 07:13:41;;;;;;;6.83;3.50;;;11.10;99.90;;;;;;5000109;28;20517;-82
2022/10/10 07:16:26;;;;;;;9.83;4.20;;;11.20;99.90;;;;;;4967557;28;20471;-82
2022/10/10 07:19:10;;;;;;;6.07;3.50;;;11.40;99.90;;;;;;4974141;28;20495;-82
2022/10/10 07:21:54;;;;;;;3.80;3.50;;;11.50;99.90;;;;;;4984138;28;20562;-81
2022/10/10 07:24:39;;;;;;;4.13;3.83;;;11.70;99.90;;;;;;4983368;28;21116;-82
2022/10/10 07:27:23;;;;;;;6.03;4.37;;;11.70;99.90;;;;;;4967432;28;20432;-82
2022/10/10 07:30:11;;;;;;;7.37;3.27;;;11.80;99.90;;;;;;4985057;28;20979;-82
2022/10/10 07:32:55;;;;;;;5.40;3.53;;;11.90;99.90;;;;;;5002744;28;20528;-82
2022/10/10 07:35:40;;;;;;;5.40;4.00;;;12.10;99.90;;;;;;4996597;28;20472;-81
2022/10/10 07:38:25;;;;;;;5.43;4.13;;;12.00;99.90;;;;;;5001960;28;20439;-82
2022/10/10 07:41:12;;;;;;;4.80;3.80;;;12.20;99.90;;;;;;4997302;28;20471;-82
2022/10/10 07:43:57;;;;;;;3.37;3.07;;;12.30;99.90;;;;;;5001131;28;21257;-81
2022/10/10 07:46:41;;;;;;;3.70;3.40;;;12.30;99.90;;;;;;4997694;28;20837;-81
2022/10/10 07:49:25;;;;;;;4.70;3.10;;;12.40;99.90;;;;;;4997311;28;20466;-80
2022/10/10 07:52:10;;;;;;;6.67;3.13;;;12.40;99.90;;;;;;4998872;28;20539;-81
2022/10/10 07:54:54;;;;;;;5.57;3.80;;;12.50;99.90;;;;;;5000863;28;20971;-81
2022/10/10 07:57:39;;;;;;;11.50;3.53;;;12.60;99.90;;;;;;4998665;28;20486;-81
2022/10/10 08:00:23;;;;;;;5.07;3.60;;;12.70;99.90;;;;;;5001715;28;20428;-81
2022/10/10 08:03:08;;;;;;;8.60;3.20;;;12.80;99.90;;;;;;5000471;28;20623;-81
2022/10/10 08:05:52;;;;;;;3.13;2.87;;;12.90;99.90;;;;;;4996221;28;20418;-80
2022/10/10 08:08:37;;;;;;;3.80;3.33;;;13.30;99.90;;;;;;5001114;28;20575;-80
2022/10/10 08:11:22;;;;;;;5.93;2.90;;;13.30;99.90;;;;;;5005748;28;20478;-81
2022/10/10 08:14:06;;;;;;;3.57;2.93;;;13.40;99.90;;;;;;5002492;28;20542;-82
2022/10/10 08:16:51;;;;;;;3.70;3.00;;;13.80;99.90;;;;;;5005623;28;21397;-82
2022/10/10 08:19:35;;;;;;;5.30;2.63;;;14.20;99.90;;;;;;5002399;28;20557;-82
2022/10/10 08:22:20;;;;;;;5.10;3.50;;;14.60;99.90;;;;;;5000336;28;20472;-82
2022/10/10 08:25:05;;;;;;;4.50;3.17;;;14.10;99.90;;;;;;5009059;28;20439;-82
2022/10/10 08:27:49;;;;;;;5.77;3.33;;;14.50;99.90;;;;;;5003369;28;20935;-82
2022/10/10 08:30:38;;;;;;;4.23;3.20;;;15.00;99.90;;;;;;5004789;28;20430;-81
2022/10/10 08:33:26;;;;;;;2.43;2.23;;;15.00;99.90;;;;;;4999712;28;20467;-81
2022/10/10 08:36:15;;;;;;;5.00;3.00;;;15.70;99.90;;;;;;5008820;28;20546;-81
2022/10/10 08:39:00;;;;;;;4.00;3.53;;;16.50;99.90;;;;;;4995827;28;20439;-81
2022/10/10 08:41:50;;;;;;;5.00;3.87;;;16.70;99.90;;;;;;5007324;28;20455;-82
2022/10/10 08:44:41;;;;;;;4.33;3.20;;;17.00;99.90;;;;;;5009701;28;20466;-81
2022/10/10 08:47:44;;;;;;;6.07;3.47;;;17.60;99.90;;;;;;5014320;28;20424;-82
2022/10/10 08:50:39;;;;;;;10.63;3.50;;;16.50;99.90;;;;;;5015018;28;20454;-81
2022/10/10 08:53:31;;;;;;;6.80;3.60;;;17.30;99.90;;;;;;5012792;28;20427;-81
2022/10/10 08:56:30;;;;;;;6.00;4.30;;;17.30;99.90;;;;;;5011358;28;20470;-80
2022/10/10 08:59:21;;;;;;;7.17;3.53;;;17.40;99.90;;;;;;5013075;28;20431;-80
2022/10/10 09:02:26;;;;;;;3.77;3.47;;;17.30;99.90;;;;;;5010184;28;20541;-81
2022/10/10 09:05:16;;;;;;;5.77;3.70;;;17.40;99.90;;;;;;5015539;28;20496;-81
2022/10/10 09:08:22;;;;;;;3.30;3.00;;;18.20;99.90;;;;;;5019532;28;20520;-81
2022/10/10 09:11:39;;;;;;;9.03;3.17;;;17.70;99.90;;;;;;5019026;28;20455;-79
2022/10/10 09:14:47;;;;;;;5.10;3.60;;;18.10;99.90;;;;;;5018265;28;20435;-79
2022/10/10 09:17:49;;;;;;;4.27;3.20;;;18.70;99.90;;;;;;5019163;28;20438;-81
2022/10/10 09:20:58;;;;;;;5.13;3.10;;;18.60;99.90;;;;;;4994537;28;20471;-81
2022/10/10 09:24:01;;;;;;;3.60;3.30;;;19.10;99.90;;;;;;5015145;28;20435;-80
2022/10/10 09:26:51;;;;;;;6.27;3.50;;;20.30;99.90;;;;;;5002924;28;20414;-82
2022/10/10 09:29:50;;;;;;;4.30;3.13;;;22.90;99.90;;;;;;5002381;28;20470;-81
2022/10/10 09:32:42;;;;;;;6.03;3.90;;;22.60;99.90;;;;;;5014993;28;20442;-79
2022/10/10 09:35:33;;;;;;;3.87;3.57;;;24.00;99.90;;;;;;5010925;28;20439;-81
2022/10/10 09:38:34;;;;;;;5.80;3.13;;;23.80;99.90;;;;;;5005481;28;20442;-81
2022/10/10 09:41:34;;;;;;;3.20;2.80;;;24.50;99.90;;;;;;4989546;28;20495;-82
2022/10/10 09:44:20;;;;;;;4.03;3.57;;;25.50;96.10;;;;;;4981527;28;20480;-81
2022/10/10 09:47:05;;;;;;;4.60;3.30;;;25.50;94.30;;;;;;4999061;28;20524;-81
2022/10/10 09:49:50;;;;;;;3.80;3.30;;;23.80;94.70;;;;;;4994102;28;20448;-81
2022/10/10 09:52:34;;;;;;;4.73;3.77;;;22.30;96.40;;;;;;4996877;28;20428;-81
2022/10/10 09:55:25;;;;;;;4.27;3.77;;;21.60;98.40;;;;;;4989876;28;20468;-81
2022/10/10 09:58:24;;;;;;;10.00;4.20;;;20.20;99.90;;;;;;4979174;28;20537;-81
2022/10/10 10:01:20;;;;;;;6.53;4.10;;;20.00;99.90;;;;;;4996976;28;20512;-80
2022/10/10 10:04:13;;;;;;;5.83;3.97;;;18.40;99.90;;;;;;4978600;28;20459;-80
2022/10/10 10:07:16;;;;;;;4.70;4.20;;;19.50;99.90;;;;;;4980599;28;20464;-78
2022/10/10 10:10:16;;;;;;;6.70;4.30;;;19.90;99.90;;;;;;4991293;28;20622;-82
2022/10/10 10:13:00;;;;;;;7.90;3.90;;;20.40;99.90;;;;;;5013204;28;20427;-80
2022/10/10 10:15:50;;;;;;;7.93;3.73;;;20.70;99.90;;;;;;5018770;28;20431;-81
2022/10/10 10:18:41;;;;;;;6.90;4.60;;;20.20;99.90;;;;;;5016202;28;20466;-81
2022/10/10 10:21:26;;;;;;;5.30;3.77;;;20.40;99.90;;;;;;5018288;28;20467;-80
2022/10/10 10:24:23;;;;;;;5.33;4.63;;;20.70;99.90;;;;;;5011811;28;20555;-81
2022/10/10 10:27:16;;;;;;;4.83;4.30;;;20.50;99.90;;;;;;5010164;28;20459;-81
2022/10/10 10:30:00;;;;;;;6.27;4.40;;;21.60;99.90;;;;;;5004921;28;20446;-80
2022/10/10 10:32:58;;;;;;;10.97;4.73;;;20.00;99.90;;;;;;4999086;28;20439;-80
2022/10/10 10:35:56;;;;;;;7.90;4.07;;;19.90;99.90;;;;;;5013167;28;20497;-80
2022/10/10 10:39:14;;;;;;;5.07;4.57;;;19.80;99.90;;;;;;5011039;28;20482;-82
2022/10/10 10:42:28;;;;;;;6.10;5.37;;;20.30;99.90;;;;;;5012143;28;20456;-81
2022/10/10 10:45:28;;;;;;;4.93;4.40;;;20.80;99.90;;;;;;5013616;28;20430;-82
2022/10/10 10:48:28;;;;;;;5.00;3.93;;;20.80;99.90;;;;;;5016902;28;20435;-82
2022/10/10 10:51:34;;;;;;;7.20;4.80;;;21.20;99.90;;;;;;5009739;28;20436;-81
2022/10/10 10:54:45;;;;;;;5.13;4.20;;;19.70;99.90;;;;;;5011958;28;20447;-82
2022/10/10 10:58:01;;;;;;;5.07;4.00;;;19.30;99.90;;;;;;5014282;28;20459;-80
2022/10/10 11:00:55;;;;;;;4.80;4.43;;;19.20;99.90;;;;;;5011577;28;20475;-82
2022/10/10 11:04:05;;;;;;;5.93;5.33;;;20.20;99.90;;;;;;5014314;28;20491;-82
2022/10/10 11:07:08;;;;;;;5.80;5.07;;;19.30;99.90;;;;;;5006400;28;20467;-82
2022/10/10 11:10:21;;;;;;;4.33;3.93;;;19.40;99.90;;;;;;5001069;28;20616;-82
2022/10/10 11:13:40;;;;;;;8.70;4.30;;;19.40;99.90;;;;;;4999172;28;20456;-82
2022/10/10 11:16:38;;;;;;;6.50;4.60;;;19.50;99.90;;;;;;5001046;28;20621;-81
2022/10/10 11:19:30;;;;;;;5.20;4.63;;;19.10;99.90;;;;;;5001888;28;20979;-82
2022/10/10 11:22:20;;;;;;;6.50;4.87;;;19.10;99.90;;;;;;5002395;28;20463;-81
2022/10/10 11:25:18;;;;;;;8.47;3.97;;;20.20;99.90;;;;;;5004966;28;20485;-82
2022/10/10 11:28:10;;;;;;;4.00;3.70;;;20.60;99.90;;;;;;5010322;28;20460;-81
2022/10/10 11:31:01;;;;;;;5.43;4.57;;;21.10;99.90;;;;;;5012055;28;20915;-83
2022/10/10 11:33:51;;;;;;;5.93;4.80;;;21.20;99.90;;;;;;5012820;28;20513;-82
2022/10/10 11:36:39;;;;;;;10.10;4.30;;;21.70;99.90;;;;;;5015815;28;20442;-82
2022/10/10 11:39:29;;;;;;;7.13;4.50;;;22.40;99.90;;;;;;5010870;28;20888;-81
2022/10/10 11:42:33;;;;;;;4.53;4.13;;;23.50;99.90;;;;;;5018251;28;20495;-82
2022/10/10 11:45:24;;;;;;;10.67;4.07;;;24.10;99.90;;;;;;5017964;28;20458;-81
2022/10/10 11:48:28;;;;;;;4.10;3.80;;;22.60;99.90;;;;;;5011330;28;20475;-82
2022/10/10 11:51:20;;;;;;;8.23;4.40;;;24.20;99.90;;;;;;5011010;28;20480;-81
2022/10/10 11:54:14;;;;;;;4.90;3.53;;;25.50;98.90;;;;;;5009852;28;20442;-81
2022/10/10 11:57:04;;;;;;;4.97;4.00;;;25.10;96.50;;;;;;5007889;28;20848;-82
2022/10/10 11:59:55;;;;;;;4.30;3.83;;;23.80;99.50;;;;;;5015401;28;20911;-82
2022/10/10 12:02:41;;;;;;;7.67;4.30;;;23.10;99.90;;;;;;5012012;28;21166;-81
2022/10/10 12:05:28;;;;;;;6.87;4.60;;;23.10;99.90;;;;;;5011288;28;20487;-83
2022/10/10 12:08:21;;;;;;;6.80;4.33;;;21.40;99.90;;;;;;5006756;28;20438;-83
2022/10/10 12:11:14;;;;;;;4.17;3.87;;;21.60;99.90;;;;;;5007510;28;20474;-82
2022/10/10 12:14:00;;;;;;;7.10;4.47;;;21.80;99.90;;;;;;5010597;28;21003;-81
2022/10/10 12:16:45;;;;;;;10.53;3.80;;;22.80;99.90;;;;;;5002674;28;20475;-83
2022/10/10 12:19:30;;;;;;;5.53;3.73;;;23.30;99.90;;;;;;5009784;28;20469;-83
2022/10/10 12:22:30;;;;;;;5.47;4.83;;;23.20;99.90;;;;;;5008358;28;20450;-82
2022/10/10 12:25:44;;;;;;;8.20;4.20;;;23.40;99.90;;;;;;5007801;28;20428;-82
2022/10/10 12:28:54;;;;;;;4.70;4.30;;;24.20;99.90;;;;;;5011517;28;20434;-83
2022/10/10 12:31:39;;;;;;;4.33;3.93;;;24.00;99.90;;;;;;5005270;28;20427;-81
2022/10/10 12:34:59;;;;;;;6.60;3.50;;;24.10;99.90;;;;;;5006273;28;21207;-81
2022/10/10 12:38:15;;;;;;;6.20;4.43;;;24.70;99.90;;;;;;5011532;28;20434;-80
2022/10/10 12:41:07;;;;;;;5.43;4.43;;;23.90;99.80;;;;;;5009022;28;20430;-81
2022/10/10 12:44:20;;;;;;;11.53;5.50;;;22.80;99.90;;;;;;5011179;28;20430;-81
2022/10/10 12:47:26;;;;;;;6.10;4.30;;;22.90;99.90;;;;;;5012893;28;20443;-80
2022/10/10 12:50:28;;;;;;;12.30;5.90;;;22.70;99.90;;;;;;5016432;28;20764;-81
2022/10/10 12:53:18;;;;;;;7.70;3.80;;;22.70;99.90;;;;;;5014346;28;20425;-81
2022/10/10 12:56:03;;;;;;;5.57;5.00;;;23.10;99.90;;;;;;5020283;28;21691;-82
2022/10/10 12:58:48;;;;;;;5.00;3.87;;;22.90;99.90;;;;;;5016552;28;20470;-81
2022/10/10 13:01:43;;;;;;;6.00;5.40;;;22.40;99.90;;;;;;5020492;28;20548;-81
2022/10/10 13:04:27;;;;;;;4.30;3.90;;;21.90;99.90;;;;;;5017328;28;20423;-80
2022/10/10 13:07:16;;;;;;;7.00;5.00;;;21.70;99.90;;;;;;5011922;28;20446;-81
2022/10/10 13:10:20;;;;;;;8.07;5.30;;;21.70;99.90;;;;;;5016345;28;20444;-82
2022/10/10 13:13:17;;;;;;;4.80;4.30;;;22.40;99.90;;;;;;5010384;28;20490;-83
2022/10/10 13:16:08;;;;;;;4.80;3.80;;;23.10;99.90;;;;;;5012601;28;20479;-82
2022/10/10 13:18:57;;;;;;;4.53;3.83;;;24.20;99.90;;;;;;5007992;28;20469;-82
2022/10/10 13:21:41;;;;;;;5.07;4.57;;;25.20;99.90;;;;;;5017454;28;20454;-82
2022/10/10 13:24:30;;;;;;;4.97;4.40;;;25.50;99.90;;;;;;5019957;28;20434;-82
2022/10/10 13:27:19;;;;;;;4.33;3.90;;;25.40;97.70;;;;;;5013402;28;20538;-81
2022/10/10 13:30:04;;;;;;;6.03;3.93;;;26.10;96.30;;;;;;5015473;28;20452;-81
2022/10/10 13:32:51;;;;;;;4.43;3.83;;;25.40;97.10;;;;;;5016281;28;20437;-81
2022/10/10 13:35:37;;;;;;;6.00;3.97;;;25.10;97.60;;;;;;5011101;28;20716;-81
2022/10/10 13:38:25;;;;;;;4.33;3.93;;;24.20;99.20;;;;;;5012735;28;20446;-82
2022/10/10 13:41:09;;;;;;;5.53;4.13;;;24.20;99.90;;;;;;5013483;28;20527;-81
2022/10/10 13:43:53;;;;;;;3.63;3.43;;;24.00;99.90;;;;;;5008014;28;20426;-82
2022/10/10 13:46:38;;;;;;;4.47;3.53;;;24.30;99.90;;;;;;5012077;28;20466;-81
2022/10/10 13:49:26;;;;;;;4.57;3.97;;;25.20;99.60;;;;;;5015014;28;20446;-81
2022/10/10 13:52:22;;;;;;;4.23;3.83;;;25.60;98.20;;;;;;5014200;28;20502;-82
2022/10/10 13:55:24;;;;;;;4.63;4.37;;;24.90;99.30;;;;;;5006825;28;20438;-82
2022/10/10 13:58:09;;;;;;;5.03;4.40;;;25.70;98.00;;;;;;5007974;28;20465;-82
2022/10/10 14:00:57;;;;;;;4.80;3.40;;;25.00;98.80;;;;;;5012277;28;20495;-80
2022/10/10 14:03:46;;;;;;;4.47;3.47;;;24.90;99.20;;;;;;5009824;28;20450;-81
2022/10/10 14:06:30;;;;;;;4.40;3.80;;;24.60;99.90;;;;;;5013272;28;20450;-82
2022/10/10 14:09:23;;;;;;;6.27;4.07;;;24.40;99.90;;;;;;5008346;28;20445;-83
2022/10/10 14:12:23;;;;;;;3.97;3.67;;;24.60;99.90;;;;;;5013826;28;20570;-81
2022/10/10 14:15:41;;;;;;;10.43;4.40;;;24.60;99.90;;;;;;5013268;28;20434;-80
2022/10/10 14:18:26;;;;;;;5.73;3.90;;;24.60;99.90;;;;;;5006875;28;20471;-81
2022/10/10 14:21:11;;;;;;;7.17;4.57;;;24.50;99.90;;;;;;5011363;28;20505;-82
2022/10/10 14:23:56;;;;;;;10.50;4.77;;;23.90;99.90;;;;;;5001601;28;20415;-82
2022/10/10 14:26:40;;;;;;;4.00;3.23;;;24.40;99.90;;;;;;5012746;28;20802;-82
2022/10/10 14:29:24;;;;;;;5.97;4.20;;;25.00;99.90;;;;;;5015487;28;20438;-82
2022/10/10 14:32:10;;;;;;;6.00;3.90;;;24.70;99.90;;;;;;5011276;28;20458;-82
2022/10/10 14:34:54;;;;;;;3.87;3.57;;;25.00;99.60;;;;;;5016136;28;20470;-82
2022/10/10 14:37:39;;;;;;;5.70;3.20;;;24.70;99.90;;;;;;5013680;28;20498;-82
2022/10/10 14:40:25;;;;;;;10.70;7.07;;;24.50;99.90;;;;;;4999466;28;20469;-82
2022/10/10 14:43:10;;;;;;;13.50;4.60;;;25.40;99.70;;;;;;5016322;28;20469;-81